Share

Villa Grove, CO

ghost town 10250 ft, near St. Elmo (KCONATHR2) Elev 11227 ft | 38.40 °N, 106.22 °W | Change Station

Current weather conditions updated 50 seconds ago

Scattered Clouds
Scattered Clouds
51.3 °F
Feels Like 51.3 °F
N
0.0
Wind Variable Wind from NW
Sunrise 6:24 AM
Sunset 7:44 PM
Moon Waning Gibbous

Today is forecast to be Much Warmer than yesterday.

Pressure 30.42 in
Visibility 10.0 miles
Clouds Scattered Clouds 5500 ft
Dew Point 16 °F
Humidity 25%
Rainfall 0.00 in
Snow Depth 45 in
UV 9 out of 16
Pollen 11.00 out of 12
Air Quality Not available.
Flu Activity Sporadic
METAR KMYP 182034Z AUTO 24028G35KT 10SM SCT055 07/M06 A3042 RMK AO2

More Conditions Fewer Conditions

Pressure 30.42 in
Visibility 10.0 miles
Clouds Scattered Clouds 5500 ft
Dew Point 16 °F
Humidity 25%
Rainfall 0.00 in
Snow Depth 45 in
UV 9 out of 16
Pollen 11.00 out of 12
Air Quality Not available.
Flu Activity Sporadic
METAR KMYP 182034Z AUTO 24028G35KT 10SM SCT055 07/M06 A3042 RMK AO2

More Conditions Fewer Conditions

10-Day Weather Forecast

Almanac

Astronomy

Apr. 18, 2014 Rise Set
Actual Time 6:24 AM MDT 7:44 PM MDT
Civil Twilight 5:57 AM MDT 8:11 PM MDT
Nautical Twilight 5:24 AM MDT 8:44 PM MDT
Astronomical Twilight 4:49 AM MDT 9:19 PM MDT
Moon 11:30 PM MDT 8:51 AM MDT
Length of Visible Light 14h 14m
Length of Day
13h 19m
Tomorrow will be 2m 19s longer.
Waning Gibbous, 86% of the Moon is Illuminated
Today
Waning Gibbous
Apr 22
Last Quarter
Apr 29
New
May 6
First Quarter
May 14
Full

Today's Extremes

State Highs State Lows

Community

  • What's for Lunch?
    What's for Lunch?
  • SUNRISE THROUGH THE TREES.
    SUNRISE THROUGH THE TREES.
  • Dog Wood Blossoms
    Dog Wood Blossoms
  • Morning Light
    Morning Light
  • New Day
    New Day

WunderPhotos

Upload Photos

1,702,495 photos uploaded!

WunderBlogs® & News

Nearby

Snow Depth

Station Depth Elevation
Porphyry Creek 45 in 10760 ft
Cochetopa Pass 0 in 10020 ft
South Colony 64 in 10800 ft
Park Cone 36 in 9600 ft
Rough And Tumble 32 in 10360 ft

Coastal Water Temperatures

Place Temperature
No Stations Reporting

Earthquake Activity

City Distance Mag. Time & Date
No recent earthquake activity has been reported nearby.
Minimum magnitude displayed is 2.5.

Nearby Weather Stations

Station Location Temp. Dew Point Humidity Wind Precip. Elev Updated Type
ghost town 10250 ft, near St. Elmo, pequot, mn 51.3 °F 16 °F 25% NW  at  0.0 mph - / hr 11227 ft 2:45 PM MDT Normal
Maysville, East Slope Monarch Pass, Salida, CO 62.0 °F 20 °F 20% NNW  at  7.0 mph 0.00 in / hr 8488 ft 2:46 PM MDT Rapid Fire
HCN SAGUACHE AIRPORT SAGUACHE 2 WNW CO , Saguache, CO 63 °F - - North  at  - 0.00 in / hr 7823 ft 2:10 PM MDT MADIS
Elk Trail, Salida, CO 64.8 °F 23 °F 20% SW  at  10.0 mph 0.00 in / hr 8166 ft 2:44 PM MDT Rapid Fire

Show More Stations Show Fewer Stations

What do you think?

We're not finished. Please let us know what you like, what you don't like, and what you are still missing.